This is the latest recevied weather packets stored in our database for station/object ED4YAZ-13. If no packets are shown the sender has not sent any weather packets the latest 10 day(s).
| Time | Temp. | Humidity | Pressure | Rain* | Wind** | Luminosity | Snow |
|---|---|---|---|---|---|---|---|
| 1777652406 | 36.11° C | 25% | 1010.8 hPa | - | - | - | - |
| 1777651806 | 33.89° C | 28% | 1011.6 hPa | - | - | - | - |
| 1777651206 | 32.22° C | 33% | 1012.4 hPa | - | - | - | - |
| 1777650606 | 34.44° C | 31% | 1011.4 hPa | - | - | - | - |
| 1777650006 | 30° C | 31% | 1013.1 hPa | - | - | - | - |
| 1777649406 | 36.67° C | 25% | 1010.7 hPa | - | - | - | - |
| 1777648806 | 30° C | 30% | 1013.2 hPa | - | - | - | - |
| 1777648206 | 25° C | 36% | 1015 hPa | - | - | - | - |
| 1777647606 | 25.56° C | 37% | 1014.7 hPa | - | - | - | - |
| 1777647006 | 24.44° C | 35% | 1015 hPa | - | - | - | - |
| 1777646406 | 22.78° C | 39% | 1015.9 hPa | - | - | - | - |
| 1777645806 | 23.89° C | 37% | 1015.6 hPa | - | - | - | - |
| 1777645203 | 24.44° C | 37% | 1015.6 hPa | - | - | - | - |
| 1777644603 | 23.89° C | 37% | 1015.9 hPa | - | - | - | - |
| 1777644003 | 24.44° C | 40% | 1015.8 hPa | - | - | - | - |
| 1777642314 | 25° C | 39% | 1015.6 hPa | - | - | - | - |
| 1777641714 | 24.44° C | 44% | 1015.8 hPa | - | - | - | - |
| 1777641114 | 22.22° C | 47% | 1017 hPa | - | - | - | - |
| 1777640514 | 22.78° C | 49% | 1016.7 hPa | - | - | - | - |
| 1777639914 | 23.33° C | 45% | 1016.6 hPa | - | - | - | - |
| 1777639314 | 23.89° C | 47% | 1016.4 hPa | - | - | - | - |
| 1777638714 | 22.78° C | 48% | 1016.9 hPa | - | - | - | - |
| 1777638114 | 21.67° C | 48% | 1017.5 hPa | - | - | - | - |
| 1777637504 | 23.33° C | 48% | 1016.8 hPa | - | - | - | - |
| 1777636894 | 22.78° C | 46% | 1016.8 hPa | - | - | - | - |
* Rain since midnight (hover to see other rain measurements)
** Current wind speed in m/s (hover to see current wind gust speed)